createdAt,value
2017-09-03T00:03:50.873Z,25.5
2017-09-03T00:08:55.603Z,25.5
2017-09-03T00:14:00.669Z,25.5
2017-09-03T00:19:06.071Z,25.5
2017-09-03T00:24:11.477Z,25.5
2017-09-03T00:29:16.546Z,25.5
2017-09-03T00:34:21.613Z,25.4
2017-09-03T00:39:27.347Z,25.4
2017-09-03T00:44:32.415Z,25.4
2017-09-03T00:49:37.151Z,25.4
2017-09-03T00:54:42.554Z,25.4
2017-09-03T00:59:48.293Z,25.4
2017-09-03T01:04:54.034Z,25.4
2017-09-03T01:09:59.097Z,25.4
2017-09-03T01:15:04.832Z,25.4
2017-09-03T01:20:09.902Z,25.3
2017-09-03T01:25:14.978Z,25.3
2017-09-03T01:30:20.389Z,25.3
2017-09-03T01:35:25.134Z,25.3
2017-09-03T01:40:30.532Z,25.3
2017-09-03T01:45:35.600Z,25.3
2017-09-03T01:50:41.004Z,25.3
2017-09-03T01:55:46.069Z,25.3
2017-09-03T02:00:50.810Z,25.3
2017-09-03T02:05:55.540Z,25.3
2017-09-03T02:11:00.605Z,25.3
2017-09-03T02:16:06.341Z,25.2
2017-09-03T02:21:10.738Z,25.2
2017-09-03T02:26:16.142Z,25.2
2017-09-03T02:31:21.208Z,25.2
2017-09-03T02:36:26.275Z,25.2
2017-09-03T02:41:32.015Z,25.2
2017-09-03T02:46:37.411Z,25.2
2017-09-03T02:51:42.814Z,25.2
2017-09-03T02:56:47.881Z,25.2
2017-09-03T03:01:52.942Z,25.2
2017-09-03T03:06:59.010Z,25.2
2017-09-03T03:12:04.410Z,25.1
2017-09-03T03:17:09.812Z,25.1
2017-09-03T03:22:14.542Z,25.1
2017-09-03T03:27:19.604Z,25.1
2017-09-03T03:32:25.345Z,25.1
2017-09-03T03:37:31.080Z,25.1
2017-09-03T03:42:36.480Z,25.1
2017-09-03T03:47:41.881Z,25.1
2017-09-03T03:52:47.283Z,25.1
2017-09-03T03:57:53.355Z,25
2017-09-03T04:02:58.468Z,25
2017-09-03T04:08:03.872Z,25
2017-09-03T04:13:09.272Z,25
2017-09-03T04:18:14.333Z,25
2017-09-03T04:23:19.066Z,25
2017-09-03T04:28:24.803Z,25
2017-09-03T04:33:29.876Z,25
2017-09-03T04:38:35.280Z,25
2017-09-03T04:43:40.700Z,25
2017-09-03T04:48:46.435Z,25
2017-09-03T04:53:51.516Z,25
2017-09-03T04:58:57.260Z,25
2017-09-03T05:04:02.358Z,25
2017-09-03T05:09:08.443Z,24.9
2017-09-03T05:14:13.845Z,25
2017-09-03T05:19:18.913Z,25
2017-09-03T05:24:23.651Z,25
2017-09-03T05:29:29.067Z,25
2017-09-03T05:34:34.122Z,25
2017-09-03T05:39:38.857Z,25
2017-09-03T05:44:43.922Z,25
2017-09-03T05:49:49.661Z,25.1
2017-09-03T05:54:55.060Z,25.1
2017-09-03T05:59:59.817Z,25.1
2017-09-03T06:05:05.941Z,25.2
2017-09-03T06:10:11.717Z,25.2
2017-09-03T06:15:17.129Z,25.3
2017-09-03T06:20:22.542Z,25.3
2017-09-03T06:25:27.630Z,25.3
2017-09-03T06:30:33.034Z,25.4
2017-09-03T06:35:37.436Z,25.5
2017-09-03T06:40:42.518Z,25.5
2017-09-03T06:45:48.279Z,25.6
2017-09-03T06:50:53.013Z,25.6
2017-09-03T06:55:57.749Z,25.7
2017-09-03T07:01:03.155Z,25.7
2017-09-03T07:06:08.565Z,25.8
2017-09-03T07:11:13.301Z,25.9
2017-09-03T07:16:18.404Z,26
2017-09-03T07:21:24.152Z,26.1
2017-09-03T07:26:29.780Z,26.2
2017-09-03T07:31:35.191Z,26.3
2017-09-03T07:36:39.932Z,26.4
2017-09-03T07:41:44.702Z,26.6
2017-09-03T07:46:50.374Z,26.7
2017-09-03T07:51:54.452Z,26.9
2017-09-03T07:57:00.202Z,27
2017-09-03T08:02:05.487Z,27.1
2017-09-03T08:07:10.562Z,27.3
2017-09-03T08:12:16.313Z,27.4
2017-09-03T08:17:21.396Z,27.6
2017-09-03T08:22:26.481Z,27.8
2017-09-03T08:27:31.573Z,28
2017-09-03T08:32:37.335Z,28.4
2017-09-03T08:37:42.097Z,28.7
2017-09-03T08:42:46.858Z,29
2017-09-03T08:47:51.956Z,29.1
2017-09-03T08:52:56.715Z,29.2
2017-09-03T08:58:02.510Z,29.2
2017-09-03T09:03:08.277Z,29.2
2017-09-03T09:08:13.710Z,29.1
2017-09-03T09:13:19.138Z,29
2017-09-03T09:18:24.570Z,28.9
2017-09-03T09:23:29.342Z,28.9
2017-09-03T09:28:34.109Z,28.9
2017-09-03T09:33:39.195Z,28.9
2017-09-03T09:38:44.961Z,28.9
2017-09-03T09:43:49.720Z,29.1
2017-09-03T09:48:55.163Z,29.3
2017-09-03T09:54:00.597Z,29.4
2017-09-03T09:59:05.040Z,29.5
2017-09-03T10:04:10.466Z,29.5
2017-09-03T10:09:16.571Z,29.5
2017-09-03T10:14:21.324Z,29.4
2017-09-03T10:19:26.423Z,29.2
2017-09-03T10:24:31.511Z,28.9
2017-09-03T10:29:36.941Z,28.5
2017-09-03T10:34:42.030Z,28
2017-09-03T10:39:46.775Z,27.6
2017-09-03T10:44:50.855Z,27.3
2017-09-03T10:49:56.270Z,27.1
2017-09-03T10:55:01.687Z,27
2017-09-03T11:00:07.100Z,26.9
2017-09-03T11:05:12.866Z,26.6
2017-09-03T11:10:18.285Z,25.8
2017-09-03T11:15:24.034Z,25.2
2017-09-03T11:20:29.781Z,25.1
2017-09-03T11:25:35.525Z,25.3
2017-09-03T11:30:40.931Z,25.5
2017-09-03T11:35:46.680Z,25.3
2017-09-03T11:40:52.095Z,25.3
2017-09-03T11:45:58.070Z,25.4
2017-09-03T11:51:03.806Z,25.3
2017-09-03T11:56:08.880Z,25
2017-09-03T12:01:14.290Z,24.9
2017-09-03T12:06:19.700Z,25.1
2017-09-03T12:11:25.103Z,25.2
2017-09-03T12:16:30.173Z,25.4
2017-09-03T12:21:35.250Z,25.4
2017-09-03T12:26:40.316Z,25.4
2017-09-03T12:31:45.721Z,25.5
2017-09-03T12:36:51.129Z,25.5
2017-09-03T12:41:56.534Z,25.6
2017-09-03T12:47:01.607Z,25.5
2017-09-03T12:52:06.013Z,25.6
2017-09-03T12:57:11.753Z,25.5
2017-09-03T13:02:16.153Z,25.5
2017-09-03T13:07:21.228Z,25.5
2017-09-03T13:12:27.308Z,25.4
2017-09-03T13:17:33.047Z,25.4
2017-09-03T13:22:38.454Z,25.3
2017-09-03T13:27:43.857Z,25.3
2017-09-03T13:32:49.602Z,25.4
2017-09-03T13:37:54.335Z,25.4
2017-09-03T13:42:59.067Z,25.5
2017-09-03T13:48:04.134Z,25.5
2017-09-03T13:53:09.209Z,25.5
2017-09-03T13:58:13.603Z,25.3
2017-09-03T14:03:19.006Z,25.3
2017-09-03T14:08:24.794Z,25.3
2017-09-03T14:13:29.528Z,25.3
2017-09-03T14:18:34.257Z,25.3
2017-09-03T14:23:38.986Z,25.3
2017-09-03T14:28:43.719Z,25.3
2017-09-03T14:33:49.123Z,25.3
2017-09-03T14:38:53.857Z,25.3
2017-09-03T14:43:58.922Z,25.3
2017-09-03T14:49:04.324Z,25.3
2017-09-03T14:54:10.079Z,25.3
2017-09-03T14:59:15.479Z,25.3
2017-09-03T15:04:20.221Z,25.3
2017-09-03T15:09:26.011Z,25.3
2017-09-03T15:14:30.759Z,25.3
2017-09-03T15:19:36.159Z,25.3
2017-09-03T15:24:41.896Z,25.3
2017-09-03T15:29:47.636Z,25.3
2017-09-03T15:34:52.700Z,25.3
2017-09-03T15:39:57.770Z,25.3
2017-09-03T15:45:03.517Z,25.3
2017-09-03T15:50:08.250Z,25.3
2017-09-03T15:55:13.339Z,25.2
2017-09-03T16:00:18.445Z,25.3
2017-09-03T16:05:24.181Z,25.3
2017-09-03T16:10:29.253Z,25.4
2017-09-03T16:15:33.994Z,25.4
2017-09-03T16:20:40.066Z,25.5
2017-09-03T16:25:45.141Z,25.5
2017-09-03T16:30:49.873Z,25.6
2017-09-03T16:35:54.613Z,25.6
2017-09-03T16:40:59.680Z,25.6
2017-09-03T16:46:04.752Z,25.6
2017-09-03T16:51:09.826Z,25.6
2017-09-03T16:56:15.234Z,25.6
2017-09-03T17:01:20.641Z,25.5
2017-09-03T17:06:26.714Z,25.5
2017-09-03T17:11:32.461Z,25.5
2017-09-03T17:16:37.190Z,25.5
2017-09-03T17:21:42.259Z,25.5
2017-09-03T17:26:47.661Z,25.5
2017-09-03T17:31:53.061Z,25.4
2017-09-03T17:36:58.464Z,25.4
2017-09-03T17:42:03.234Z,25.4
2017-09-03T17:47:08.950Z,25.4
2017-09-03T17:52:14.684Z,25.4
2017-09-03T17:57:18.757Z,25.4
2017-09-03T18:02:24.160Z,25.5
2017-09-03T18:07:29.230Z,25.5
2017-09-03T18:12:33.630Z,25.5
2017-09-03T18:17:39.373Z,25.5
2017-09-03T18:22:44.777Z,25.5
2017-09-03T18:27:50.514Z,25.5
2017-09-03T18:32:55.579Z,25.5
2017-09-03T18:38:01.338Z,25.5
2017-09-03T18:43:06.088Z,25.6
2017-09-03T18:48:10.492Z,25.6
2017-09-03T18:53:15.556Z,25.6
2017-09-03T18:58:20.625Z,25.6
2017-09-03T19:03:26.026Z,25.6
2017-09-03T19:08:31.093Z,25.6
2017-09-03T19:13:36.172Z,25.6
2017-09-03T19:18:41.592Z,25.5
2017-09-03T19:23:46.659Z,25.5
2017-09-03T19:28:52.064Z,25.5
2017-09-03T19:33:57.470Z,25.5
2017-09-03T19:39:02.209Z,25.5
2017-09-03T19:44:07.609Z,25.5
2017-09-03T19:49:12.676Z,25.5
2017-09-03T19:54:17.742Z,25.5
2017-09-03T19:59:22.476Z,25.5
2017-09-03T20:04:27.879Z,25.5
2017-09-03T20:09:33.274Z,25.5
2017-09-03T20:14:38.687Z,25.4
2017-09-03T20:19:44.424Z,25.4
2017-09-03T20:24:49.490Z,25.4
2017-09-03T20:29:54.562Z,25.4
2017-09-03T20:34:59.967Z,25.4
2017-09-03T20:40:06.046Z,25.4
2017-09-03T20:45:11.114Z,25.4
2017-09-03T20:50:15.174Z,25.4
2017-09-03T20:55:20.250Z,25.4
2017-09-03T21:00:25.641Z,25.4
2017-09-03T21:05:31.380Z,25.3
2017-09-03T21:10:36.779Z,25.3
2017-09-03T21:15:41.516Z,25.3
2017-09-03T21:20:46.918Z,25.3
2017-09-03T21:25:51.980Z,25.3
2017-09-03T21:30:57.380Z,25.3
2017-09-03T21:36:02.112Z,25.3
2017-09-03T21:41:07.523Z,25.3
2017-09-03T21:46:13.264Z,25.3
2017-09-03T21:51:18.666Z,25.3
2017-09-03T21:56:23.731Z,25.3
2017-09-03T22:01:29.802Z,25.3
2017-09-03T22:06:34.869Z,25.3
2017-09-03T22:11:39.600Z,25.3
2017-09-03T22:16:45.336Z,25.3
2017-09-03T22:21:50.068Z,25.3
2017-09-03T22:26:55.809Z,25.2
2017-09-03T22:32:00.873Z,25.2
2017-09-03T22:37:05.943Z,25.2
2017-09-03T22:42:10.680Z,25.2
2017-09-03T22:47:15.739Z,25.2
2017-09-03T22:52:21.151Z,25.2
2017-09-03T22:57:26.551Z,25.2
2017-09-03T23:02:31.282Z,25.2
2017-09-03T23:07:36.350Z,25.2
2017-09-03T23:12:41.414Z,25.2
2017-09-03T23:17:45.814Z,25.2
2017-09-03T23:22:50.541Z,25.1
2017-09-03T23:27:55.269Z,25.1
2017-09-03T23:33:00.005Z,25.1
2017-09-03T23:38:05.069Z,25.1
2017-09-03T23:43:09.800Z,25.1
2017-09-03T23:48:15.205Z,25.1
2017-09-03T23:53:20.607Z,25.1
2017-09-03T23:58:25.674Z,25.1
